Terminal Aerodrome Forecast
Issued by NWS Austin/San Antonio, TX

Home | Current Version | Previous Version | Text Only | Print | Product List | Glossary On
Versions: 1 2 3 4 5 6 7 8 9 10 11 12 13 14 15
000
FTUS44 KEWX 011100
TAFSAT
TAF
KSAT 011140Z 0112/0218 18005KT P6SM FEW010 OVC018
      TEMPO 0112/0113 5SM BR
     FM011600 18010KT P6SM SCT050
     FM020700 17004KT P6SM OVC015=

USA.gov is the U.S. government's official web portal to all federal, state and local government web resources and services.